Terminal Aerodrome Forecast
Issued by NWS Greer, SC

Home | Current Version | Previous Version | Text Only | Print | Product List | Glossary On
Versions: 1 2 3 4 5 6 7 8 9 10 11 12 13 14 15 16 17 18 19 20
000
FTUS42 KGSP 131700
TAFGSP
TAF
KGSP 131732Z 1318/1418 22005KT P6SM SCT050
     FM132100 21005KT P6SM BKN060
     FM140100 21004KT P6SM SCT060
     FM141400 24008KT P6SM SCT110=

USA.gov is the U.S. government's official web portal to all federal, state and local government web resources and services.